sensor_id;sensor_type;location;lat;lon;timestamp;P1;durP1;ratioP1;P2;durP2;ratioP2
61741;SDS011;47650;49.848;9.620;2022-12-04T00:02:19;17.20;;;14.27;;
61741;SDS011;47650;49.848;9.620;2022-12-04T00:04:45;19.92;;;15.00;;
61741;SDS011;47650;49.848;9.620;2022-12-04T00:07:10;16.48;;;13.93;;
61741;SDS011;47650;49.848;9.620;2022-12-04T00:09:36;17.30;;;14.18;;
61741;SDS011;47650;49.848;9.620;2022-12-04T00:12:01;18.48;;;14.15;;
61741;SDS011;47650;49.848;9.620;2022-12-04T00:14:28;17.75;;;14.52;;
61741;SDS011;47650;49.848;9.620;2022-12-04T00:16:53;16.90;;;14.15;;
61741;SDS011;47650;49.848;9.620;2022-12-04T00:19:18;18.05;;;14.95;;
61741;SDS011;47650;49.848;9.620;2022-12-04T00:21:44;16.30;;;13.52;;
61741;SDS011;47650;49.848;9.620;2022-12-04T00:24:10;16.05;;;13.52;;
61741;SDS011;47650;49.848;9.620;2022-12-04T00:26:35;16.52;;;13.23;;
61741;SDS011;47650;49.848;9.620;2022-12-04T00:29:00;18.73;;;14.35;;
61741;SDS011;47650;49.848;9.620;2022-12-04T00:31:32;17.23;;;13.80;;
61741;SDS011;47650;49.848;9.620;2022-12-04T00:33:58;17.20;;;13.38;;
61741;SDS011;47650;49.848;9.620;2022-12-04T00:36:25;15.25;;;12.35;;
61741;SDS011;47650;49.848;9.620;2022-12-04T00:38:52;16.30;;;13.18;;
61741;SDS011;47650;49.848;9.620;2022-12-04T00:41:21;16.38;;;13.38;;
61741;SDS011;47650;49.848;9.620;2022-12-04T00:43:48;15.95;;;13.23;;
61741;SDS011;47650;49.848;9.620;2022-12-04T00:46:14;18.13;;;14.75;;
61741;SDS011;47650;49.848;9.620;2022-12-04T00:48:42;16.10;;;13.48;;
61741;SDS011;47650;49.848;9.620;2022-12-04T00:51:10;14.80;;;12.90;;
61741;SDS011;47650;49.848;9.620;2022-12-04T00:53:38;15.82;;;12.75;;
61741;SDS011;47650;49.848;9.620;2022-12-04T00:56:05;17.52;;;13.68;;
61741;SDS011;47650;49.848;9.620;2022-12-04T00:58:31;15.48;;;12.35;;
61741;SDS011;47650;49.848;9.620;2022-12-04T01:01:05;15.73;;;12.50;;
61741;SDS011;47650;49.848;9.620;2022-12-04T01:03:38;16.92;;;13.30;;
61741;SDS011;47650;49.848;9.620;2022-12-04T01:06:06;18.02;;;13.85;;
61741;SDS011;47650;49.848;9.620;2022-12-04T01:08:40;17.45;;;13.52;;
61741;SDS011;47650;49.848;9.620;2022-12-04T01:11:08;16.80;;;13.02;;
61741;SDS011;47650;49.848;9.620;2022-12-04T01:13:40;16.80;;;13.35;;
61741;SDS011;47650;49.848;9.620;2022-12-04T01:16:05;16.67;;;13.13;;
61741;SDS011;47650;49.848;9.620;2022-12-04T01:18:31;16.77;;;13.05;;
61741;SDS011;47650;49.848;9.620;2022-12-04T01:20:56;16.00;;;12.75;;
61741;SDS011;47650;49.848;9.620;2022-12-04T01:23:22;19.08;;;13.13;;
61741;SDS011;47650;49.848;9.620;2022-12-04T01:25:57;15.73;;;12.55;;
61741;SDS011;47650;49.848;9.620;2022-12-04T01:28:23;17.02;;;13.35;;
61741;SDS011;47650;49.848;9.620;2022-12-04T01:31:22;16.27;;;12.30;;
61741;SDS011;47650;49.848;9.620;2022-12-04T01:33:43;17.40;;;13.57;;
61741;SDS011;47650;49.848;9.620;2022-12-04T01:36:12;16.50;;;12.98;;
61741;SDS011;47650;49.848;9.620;2022-12-04T01:38:38;15.88;;;13.32;;
61741;SDS011;47650;49.848;9.620;2022-12-04T01:41:05;16.48;;;13.73;;
61741;SDS011;47650;49.848;9.620;2022-12-04T01:43:31;16.77;;;13.43;;
61741;SDS011;47650;49.848;9.620;2022-12-04T01:45:58;15.35;;;12.15;;
61741;SDS011;47650;49.848;9.620;2022-12-04T01:50:58;15.82;;;12.48;;
61741;SDS011;47650;49.848;9.620;2022-12-04T01:53:34;16.50;;;12.55;;
61741;SDS011;47650;49.848;9.620;2022-12-04T01:56:03;15.82;;;12.32;;
61741;SDS011;47650;49.848;9.620;2022-12-04T01:58:30;17.52;;;13.68;;
61741;SDS011;47650;49.848;9.620;2022-12-04T02:01:01;17.95;;;13.52;;
61741;SDS011;47650;49.848;9.620;2022-12-04T02:03:29;15.55;;;11.77;;
61741;SDS011;47650;49.848;9.620;2022-12-04T02:05:54;18.42;;;14.18;;
61741;SDS011;47650;49.848;9.620;2022-12-04T02:08:24;17.67;;;13.20;;
61741;SDS011;47650;49.848;9.620;2022-12-04T02:11:17;18.10;;;14.00;;
61741;SDS011;47650;49.848;9.620;2022-12-04T02:19:50;18.13;;;13.52;;
61741;SDS011;47650;49.848;9.620;2022-12-04T02:22:23;19.48;;;13.77;;
61741;SDS011;47650;49.848;9.620;2022-12-04T02:25:05;17.27;;;12.98;;
61741;SDS011;47650;49.848;9.620;2022-12-04T02:30:06;18.90;;;12.45;;
61741;SDS011;47650;49.848;9.620;2022-12-04T02:32:47;17.38;;;12.40;;
61741;SDS011;47650;49.848;9.620;2022-12-04T02:35:22;16.42;;;13.52;;
61741;SDS011;47650;49.848;9.620;2022-12-04T02:37:56;18.48;;;13.40;;
61741;SDS011;47650;49.848;9.620;2022-12-04T02:40:28;16.33;;;12.35;;
61741;SDS011;47650;49.848;9.620;2022-12-04T02:43:04;17.30;;;12.52;;
61741;SDS011;47650;49.848;9.620;2022-12-04T02:45:38;17.05;;;12.23;;
61741;SDS011;47650;49.848;9.620;2022-12-04T02:48:12;18.52;;;13.43;;
61741;SDS011;47650;49.848;9.620;2022-12-04T02:50:42;18.70;;;13.48;;
61741;SDS011;47650;49.848;9.620;2022-12-04T02:53:22;17.80;;;13.10;;
61741;SDS011;47650;49.848;9.620;2022-12-04T02:55:53;17.35;;;13.23;;
61741;SDS011;47650;49.848;9.620;2022-12-04T02:58:30;18.10;;;12.90;;
61741;SDS011;47650;49.848;9.620;2022-12-04T03:01:02;17.00;;;13.00;;
61741;SDS011;47650;49.848;9.620;2022-12-04T03:03:43;18.92;;;13.52;;
61741;SDS011;47650;49.848;9.620;2022-12-04T03:06:13;19.02;;;13.63;;
61741;SDS011;47650;49.848;9.620;2022-12-04T03:08:42;17.77;;;13.57;;
61741;SDS011;47650;49.848;9.620;2022-12-04T03:11:13;18.58;;;13.75;;
61741;SDS011;47650;49.848;9.620;2022-12-04T03:16:27;18.85;;;13.35;;
61741;SDS011;47650;49.848;9.620;2022-12-04T03:18:58;17.55;;;14.18;;
61741;SDS011;47650;49.848;9.620;2022-12-04T03:21:35;19.58;;;14.20;;
61741;SDS011;47650;49.848;9.620;2022-12-04T03:26:54;20.33;;;14.95;;
61741;SDS011;47650;49.848;9.620;2022-12-04T03:29:32;19.92;;;14.48;;
61741;SDS011;47650;49.848;9.620;2022-12-04T03:32:22;19.60;;;14.10;;
61741;SDS011;47650;49.848;9.620;2022-12-04T03:35:01;18.85;;;13.90;;
61741;SDS011;47650;49.848;9.620;2022-12-04T03:37:42;19.75;;;13.85;;
61741;SDS011;47650;49.848;9.620;2022-12-04T03:40:34;20.05;;;14.43;;
61741;SDS011;47650;49.848;9.620;2022-12-04T03:43:28;18.33;;;13.25;;
61741;SDS011;47650;49.848;9.620;2022-12-04T03:46:13;23.88;;;16.02;;
61741;SDS011;47650;49.848;9.620;2022-12-04T03:48:58;18.83;;;14.48;;
61741;SDS011;47650;49.848;9.620;2022-12-04T03:54:13;21.65;;;14.75;;
61741;SDS011;47650;49.848;9.620;2022-12-04T03:56:52;19.55;;;15.18;;
61741;SDS011;47650;49.848;9.620;2022-12-04T03:59:25;19.60;;;13.90;;
61741;SDS011;47650;49.848;9.620;2022-12-04T04:01:54;19.73;;;13.52;;
61741;SDS011;47650;49.848;9.620;2022-12-04T04:04:27;20.25;;;13.45;;
61741;SDS011;47650;49.848;9.620;2022-12-04T04:06:58;18.30;;;13.65;;
61741;SDS011;47650;49.848;9.620;2022-12-04T04:09:30;19.20;;;13.73;;
61741;SDS011;47650;49.848;9.620;2022-12-04T04:14:38;19.45;;;14.27;;
61741;SDS011;47650;49.848;9.620;2022-12-04T04:17:24;17.33;;;13.27;;
61741;SDS011;47650;49.848;9.620;2022-12-04T04:20:16;19.83;;;14.05;;
61741;SDS011;47650;49.848;9.620;2022-12-04T04:23:05;18.88;;;14.60;;
61741;SDS011;47650;49.848;9.620;2022-12-04T04:25:53;16.95;;;13.02;;
61741;SDS011;47650;49.848;9.620;2022-12-04T04:28:31;19.25;;;13.73;;
61741;SDS011;47650;49.848;9.620;2022-12-04T04:36:40;20.90;;;14.50;;
61741;SDS011;47650;49.848;9.620;2022-12-04T04:39:30;18.45;;;13.65;;
61741;SDS011;47650;49.848;9.620;2022-12-04T04:44:43;18.70;;;13.55;;
61741;SDS011;47650;49.848;9.620;2022-12-04T04:47:24;18.23;;;12.95;;
61741;SDS011;47650;49.848;9.620;2022-12-04T04:49:56;18.58;;;14.23;;
61741;SDS011;47650;49.848;9.620;2022-12-04T04:52:25;18.15;;;12.60;;
61741;SDS011;47650;49.848;9.620;2022-12-04T04:54:52;17.25;;;12.88;;
61741;SDS011;47650;49.848;9.620;2022-12-04T04:57:24;16.60;;;11.95;;
61741;SDS011;47650;49.848;9.620;2022-12-04T04:59:58;17.27;;;13.63;;
61741;SDS011;47650;49.848;9.620;2022-12-04T05:02:25;16.92;;;12.93;;
61741;SDS011;47650;49.848;9.620;2022-12-04T05:04:51;15.68;;;11.30;;
61741;SDS011;47650;49.848;9.620;2022-12-04T05:07:20;19.65;;;13.93;;
61741;SDS011;47650;49.848;9.620;2022-12-04T05:09:45;17.85;;;13.98;;
61741;SDS011;47650;49.848;9.620;2022-12-04T05:12:10;16.38;;;12.15;;
61741;SDS011;47650;49.848;9.620;2022-12-04T05:14:36;18.30;;;13.40;;
61741;SDS011;47650;49.848;9.620;2022-12-04T05:17:02;18.20;;;13.95;;
61741;SDS011;47650;49.848;9.620;2022-12-04T05:19:31;20.73;;;13.18;;
61741;SDS011;47650;49.848;9.620;2022-12-04T05:22:16;19.50;;;13.80;;
61741;SDS011;47650;49.848;9.620;2022-12-04T05:24:42;20.85;;;13.95;;
61741;SDS011;47650;49.848;9.620;2022-12-04T05:27:08;20.08;;;13.65;;
61741;SDS011;47650;49.848;9.620;2022-12-04T05:29:33;18.88;;;14.05;;
61741;SDS011;47650;49.848;9.620;2022-12-04T05:32:01;20.27;;;14.55;;
61741;SDS011;47650;49.848;9.620;2022-12-04T05:34:28;20.98;;;14.85;;
61741;SDS011;47650;49.848;9.620;2022-12-04T05:36:54;20.10;;;13.32;;
61741;SDS011;47650;49.848;9.620;2022-12-04T05:39:19;21.33;;;15.82;;
61741;SDS011;47650;49.848;9.620;2022-12-04T05:41:45;18.73;;;13.32;;
61741;SDS011;47650;49.848;9.620;2022-12-04T05:44:11;17.55;;;13.38;;
61741;SDS011;47650;49.848;9.620;2022-12-04T05:46:37;19.27;;;12.57;;
61741;SDS011;47650;49.848;9.620;2022-12-04T05:49:03;18.77;;;13.88;;
61741;SDS011;47650;49.848;9.620;2022-12-04T05:51:28;20.13;;;14.68;;
61741;SDS011;47650;49.848;9.620;2022-12-04T05:53:55;18.88;;;14.63;;
61741;SDS011;47650;49.848;9.620;2022-12-04T05:56:21;20.55;;;12.15;;
61741;SDS011;47650;49.848;9.620;2022-12-04T05:58:47;17.33;;;13.70;;
61741;SDS011;47650;49.848;9.620;2022-12-04T06:01:20;18.13;;;14.00;;
61741;SDS011;47650;49.848;9.620;2022-12-04T06:03:48;17.27;;;13.07;;
61741;SDS011;47650;49.848;9.620;2022-12-04T06:06:14;17.77;;;13.05;;
61741;SDS011;47650;49.848;9.620;2022-12-04T06:08:41;17.10;;;13.27;;
61741;SDS011;47650;49.848;9.620;2022-12-04T06:11:10;18.17;;;14.52;;
61741;SDS011;47650;49.848;9.620;2022-12-04T06:13:37;19.23;;;14.45;;
61741;SDS011;47650;49.848;9.620;2022-12-04T06:16:04;20.08;;;14.18;;
61741;SDS011;47650;49.848;9.620;2022-12-04T06:18:32;20.05;;;14.73;;
61741;SDS011;47650;49.848;9.620;2022-12-04T06:20:58;20.55;;;14.45;;
61741;SDS011;47650;49.848;9.620;2022-12-04T06:23:23;19.38;;;14.95;;
61741;SDS011;47650;49.848;9.620;2022-12-04T06:25:49;18.67;;;13.00;;
61741;SDS011;47650;49.848;9.620;2022-12-04T06:28:14;18.25;;;13.30;;
61741;SDS011;47650;49.848;9.620;2022-12-04T06:30:39;18.15;;;14.05;;
61741;SDS011;47650;49.848;9.620;2022-12-04T06:33:04;17.48;;;11.27;;
61741;SDS011;47650;49.848;9.620;2022-12-04T06:35:30;16.75;;;12.88;;
61741;SDS011;47650;49.848;9.620;2022-12-04T06:37:55;19.88;;;14.23;;
61741;SDS011;47650;49.848;9.620;2022-12-04T06:40:22;20.52;;;14.23;;
61741;SDS011;47650;49.848;9.620;2022-12-04T06:42:48;16.52;;;12.48;;
61741;SDS011;47650;49.848;9.620;2022-12-04T06:45:13;17.00;;;13.43;;
61741;SDS011;47650;49.848;9.620;2022-12-04T06:47:39;19.52;;;14.60;;
61741;SDS011;47650;49.848;9.620;2022-12-04T06:50:04;19.05;;;14.20;;
61741;SDS011;47650;49.848;9.620;2022-12-04T06:52:31;18.13;;;13.70;;
61741;SDS011;47650;49.848;9.620;2022-12-04T06:54:58;19.27;;;14.10;;
61741;SDS011;47650;49.848;9.620;2022-12-04T06:57:23;20.55;;;15.10;;
61741;SDS011;47650;49.848;9.620;2022-12-04T06:59:48;16.92;;;13.73;;
61741;SDS011;47650;49.848;9.620;2022-12-04T07:02:14;19.58;;;13.73;;
61741;SDS011;47650;49.848;9.620;2022-12-04T07:04:39;18.63;;;13.52;;
61741;SDS011;47650;49.848;9.620;2022-12-04T07:07:06;18.70;;;13.25;;
61741;SDS011;47650;49.848;9.620;2022-12-04T07:09:33;17.48;;;12.88;;
61741;SDS011;47650;49.848;9.620;2022-12-04T07:11:59;18.70;;;13.95;;
61741;SDS011;47650;49.848;9.620;2022-12-04T07:14:25;20.20;;;13.30;;
61741;SDS011;47650;49.848;9.620;2022-12-04T07:16:51;16.73;;;12.57;;
61741;SDS011;47650;49.848;9.620;2022-12-04T07:19:16;18.50;;;13.50;;
61741;SDS011;47650;49.848;9.620;2022-12-04T07:21:42;18.83;;;13.82;;
61741;SDS011;47650;49.848;9.620;2022-12-04T07:24:08;18.92;;;12.50;;
61741;SDS011;47650;49.848;9.620;2022-12-04T07:26:38;16.95;;;12.07;;
61741;SDS011;47650;49.848;9.620;2022-12-04T07:29:05;18.83;;;12.73;;
61741;SDS011;47650;49.848;9.620;2022-12-04T07:31:30;16.60;;;12.85;;
61741;SDS011;47650;49.848;9.620;2022-12-04T07:33:56;17.42;;;12.80;;
61741;SDS011;47650;49.848;9.620;2022-12-04T07:36:23;16.27;;;10.82;;
61741;SDS011;47650;49.848;9.620;2022-12-04T07:38:49;16.13;;;12.02;;
61741;SDS011;47650;49.848;9.620;2022-12-04T07:41:15;17.13;;;12.23;;
61741;SDS011;47650;49.848;9.620;2022-12-04T07:43:41;17.75;;;12.93;;
61741;SDS011;47650;49.848;9.620;2022-12-04T07:46:10;18.60;;;12.73;;
61741;SDS011;47650;49.848;9.620;2022-12-04T07:48:37;18.10;;;13.15;;
61741;SDS011;47650;49.848;9.620;2022-12-04T07:51:09;18.73;;;13.40;;
61741;SDS011;47650;49.848;9.620;2022-12-04T07:53:38;21.17;;;13.90;;
61741;SDS011;47650;49.848;9.620;2022-12-04T07:56:04;17.23;;;12.40;;
61741;SDS011;47650;49.848;9.620;2022-12-04T07:58:30;17.77;;;13.15;;
61741;SDS011;47650;49.848;9.620;2022-12-04T08:01:16;17.20;;;12.45;;
61741;SDS011;47650;49.848;9.620;2022-12-04T08:03:43;16.48;;;12.15;;
61741;SDS011;47650;49.848;9.620;2022-12-04T08:06:09;17.88;;;13.13;;
61741;SDS011;47650;49.848;9.620;2022-12-04T08:08:35;17.58;;;13.18;;
61741;SDS011;47650;49.848;9.620;2022-12-04T08:11:04;18.25;;;12.95;;
61741;SDS011;47650;49.848;9.620;2022-12-04T08:13:30;17.23;;;12.50;;
61741;SDS011;47650;49.848;9.620;2022-12-04T08:16:07;16.70;;;12.43;;
61741;SDS011;47650;49.848;9.620;2022-12-04T08:18:33;17.20;;;12.13;;
61741;SDS011;47650;49.848;9.620;2022-12-04T08:21:05;13.75;;;10.80;;
61741;SDS011;47650;49.848;9.620;2022-12-04T08:23:32;16.45;;;11.00;;
61741;SDS011;47650;49.848;9.620;2022-12-04T08:25:58;14.63;;;11.23;;
61741;SDS011;47650;49.848;9.620;2022-12-04T08:28:24;14.48;;;11.82;;
61741;SDS011;47650;49.848;9.620;2022-12-04T08:30:49;16.40;;;12.15;;
61741;SDS011;47650;49.848;9.620;2022-12-04T08:33:16;15.35;;;11.15;;
61741;SDS011;47650;49.848;9.620;2022-12-04T08:35:41;13.98;;;10.73;;
61741;SDS011;47650;49.848;9.620;2022-12-04T08:38:08;14.95;;;11.30;;
61741;SDS011;47650;49.848;9.620;2022-12-04T08:40:33;14.85;;;11.32;;
61741;SDS011;47650;49.848;9.620;2022-12-04T08:42:59;14.80;;;11.60;;
61741;SDS011;47650;49.848;9.620;2022-12-04T08:45:24;13.90;;;10.65;;
61741;SDS011;47650;49.848;9.620;2022-12-04T08:47:49;14.38;;;10.70;;
61741;SDS011;47650;49.848;9.620;2022-12-04T08:50:15;14.10;;;11.07;;
61741;SDS011;47650;49.848;9.620;2022-12-04T08:52:42;15.93;;;11.85;;
61741;SDS011;47650;49.848;9.620;2022-12-04T08:55:08;16.52;;;11.55;;
61741;SDS011;47650;49.848;9.620;2022-12-04T08:57:34;15.68;;;11.02;;
61741;SDS011;47650;49.848;9.620;2022-12-04T08:59:59;14.15;;;10.63;;
61741;SDS011;47650;49.848;9.620;2022-12-04T09:02:24;12.55;;;10.43;;
61741;SDS011;47650;49.848;9.620;2022-12-04T09:04:50;15.35;;;11.75;;
61741;SDS011;47650;49.848;9.620;2022-12-04T09:07:15;13.13;;;10.43;;
61741;SDS011;47650;49.848;9.620;2022-12-04T09:09:41;14.20;;;10.85;;
61741;SDS011;47650;49.848;9.620;2022-12-04T09:12:06;13.82;;;11.05;;
61741;SDS011;47650;49.848;9.620;2022-12-04T09:14:32;13.02;;;10.60;;
61741;SDS011;47650;49.848;9.620;2022-12-04T09:16:57;13.25;;;11.07;;
61741;SDS011;47650;49.848;9.620;2022-12-04T09:19:23;20.88;;;11.27;;
61741;SDS011;47650;49.848;9.620;2022-12-04T09:21:48;13.75;;;10.60;;
61741;SDS011;47650;49.848;9.620;2022-12-04T09:24:13;14.02;;;10.48;;
61741;SDS011;47650;49.848;9.620;2022-12-04T09:26:39;13.43;;;10.88;;
61741;SDS011;47650;49.848;9.620;2022-12-04T09:29:05;13.30;;;10.52;;
61741;SDS011;47650;49.848;9.620;2022-12-04T09:31:32;14.18;;;10.13;;
61741;SDS011;47650;49.848;9.620;2022-12-04T09:33:58;14.35;;;11.23;;
61741;SDS011;47650;49.848;9.620;2022-12-04T09:36:24;12.90;;;10.32;;
61741;SDS011;47650;49.848;9.620;2022-12-04T09:38:51;14.45;;;11.02;;
61741;SDS011;47650;49.848;9.620;2022-12-04T09:43:46;12.38;;;10.00;;
61741;SDS011;47650;49.848;9.620;2022-12-04T09:46:27;13.55;;;10.70;;
61741;SDS011;47650;49.848;9.620;2022-12-04T09:48:55;11.65;;;8.77;;
61741;SDS011;47650;49.848;9.620;2022-12-04T09:51:22;13.10;;;10.13;;
61741;SDS011;47650;49.848;9.620;2022-12-04T09:53:52;11.90;;;9.90;;
61741;SDS011;47650;49.848;9.620;2022-12-04T09:56:21;12.30;;;10.43;;
61741;SDS011;47650;49.848;9.620;2022-12-04T09:58:54;12.85;;;10.45;;
61741;SDS011;47650;49.848;9.620;2022-12-04T10:01:29;13.70;;;10.93;;
61741;SDS011;47650;49.848;9.620;2022-12-04T10:04:09;12.07;;;9.95;;
61741;SDS011;47650;49.848;9.620;2022-12-04T10:20:52;13.23;;;9.43;;
61741;SDS011;47650;49.848;9.620;2022-12-04T10:26:11;12.45;;;9.75;;
61741;SDS011;47650;49.848;9.620;2022-12-04T10:28:47;10.95;;;9.27;;
61741;SDS011;47650;49.848;9.620;2022-12-04T10:31:20;12.27;;;9.45;;
61741;SDS011;47650;49.848;9.620;2022-12-04T10:33:50;11.75;;;9.63;;
61741;SDS011;47650;49.848;9.620;2022-12-04T10:36:17;12.93;;;10.30;;
61741;SDS011;47650;49.848;9.620;2022-12-04T10:38:48;13.77;;;10.30;;
61741;SDS011;47650;49.848;9.620;2022-12-04T10:44:03;11.95;;;9.73;;
61741;SDS011;47650;49.848;9.620;2022-12-04T10:46:30;12.35;;;8.93;;
61741;SDS011;47650;49.848;9.620;2022-12-04T10:48:59;11.63;;;9.50;;
61741;SDS011;47650;49.848;9.620;2022-12-04T10:51:40;12.02;;;9.93;;
61741;SDS011;47650;49.848;9.620;2022-12-04T10:54:12;13.52;;;10.13;;
61741;SDS011;47650;49.848;9.620;2022-12-04T10:56:49;11.38;;;9.57;;
61741;SDS011;47650;49.848;9.620;2022-12-04T10:59:18;13.27;;;10.02;;
61741;SDS011;47650;49.848;9.620;2022-12-04T11:01:43;12.65;;;10.45;;
61741;SDS011;47650;49.848;9.620;2022-12-04T11:04:17;10.55;;;9.18;;
61741;SDS011;47650;49.848;9.620;2022-12-04T11:06:46;15.40;;;11.85;;
61741;SDS011;47650;49.848;9.620;2022-12-04T11:09:23;13.55;;;10.68;;
61741;SDS011;47650;49.848;9.620;2022-12-04T11:11:49;14.65;;;12.25;;
61741;SDS011;47650;49.848;9.620;2022-12-04T11:14:16;13.10;;;10.85;;
61741;SDS011;47650;49.848;9.620;2022-12-04T11:16:47;15.80;;;12.73;;
61741;SDS011;47650;49.848;9.620;2022-12-04T11:19:25;15.43;;;11.48;;
61741;SDS011;47650;49.848;9.620;2022-12-04T11:21:53;17.52;;;11.70;;
61741;SDS011;47650;49.848;9.620;2022-12-04T11:24:37;15.85;;;11.73;;
61741;SDS011;47650;49.848;9.620;2022-12-04T11:27:07;13.25;;;10.60;;
61741;SDS011;47650;49.848;9.620;2022-12-04T11:29:47;16.40;;;11.50;;
61741;SDS011;47650;49.848;9.620;2022-12-04T11:32:20;13.80;;;10.82;;
61741;SDS011;47650;49.848;9.620;2022-12-04T11:34:48;17.80;;;11.15;;
61741;SDS011;47650;49.848;9.620;2022-12-04T11:37:18;14.77;;;10.88;;
61741;SDS011;47650;49.848;9.620;2022-12-04T11:39:49;12.07;;;10.15;;
61741;SDS011;47650;49.848;9.620;2022-12-04T11:42:17;14.18;;;11.30;;
61741;SDS011;47650;49.848;9.620;2022-12-04T11:47:25;14.20;;;11.10;;
61741;SDS011;47650;49.848;9.620;2022-12-04T11:49:59;15.35;;;10.23;;
61741;SDS011;47650;49.848;9.620;2022-12-04T11:53:09;15.55;;;10.63;;
61741;SDS011;47650;49.848;9.620;2022-12-04T11:58:39;14.10;;;10.80;;
61741;SDS011;47650;49.848;9.620;2022-12-04T12:01:46;15.13;;;11.80;;
61741;SDS011;47650;49.848;9.620;2022-12-04T12:18:12;15.73;;;12.20;;
61741;SDS011;47650;49.848;9.620;2022-12-04T12:21:19;16.33;;;11.70;;
61741;SDS011;47650;49.848;9.620;2022-12-04T12:29:37;16.77;;;11.85;;
61741;SDS011;47650;49.848;9.620;2022-12-04T12:32:30;15.38;;;11.85;;
61741;SDS011;47650;49.848;9.620;2022-12-04T12:35:18;15.18;;;12.10;;
61741;SDS011;47650;49.848;9.620;2022-12-04T12:37:50;15.50;;;12.00;;
61741;SDS011;47650;49.848;9.620;2022-12-04T12:40:24;17.63;;;13.15;;
61741;SDS011;47650;49.848;9.620;2022-12-04T12:42:56;18.30;;;13.07;;
61741;SDS011;47650;49.848;9.620;2022-12-04T12:53:52;15.55;;;10.82;;
61741;SDS011;47650;49.848;9.620;2022-12-04T12:56:25;15.57;;;11.73;;
61741;SDS011;47650;49.848;9.620;2022-12-04T12:58:57;16.67;;;12.02;;
61741;SDS011;47650;49.848;9.620;2022-12-04T13:01:37;15.50;;;11.90;;
61741;SDS011;47650;49.848;9.620;2022-12-04T13:04:12;16.45;;;11.73;;
61741;SDS011;47650;49.848;9.620;2022-12-04T13:06:44;15.38;;;12.40;;
61741;SDS011;47650;49.848;9.620;2022-12-04T13:12:11;16.08;;;11.68;;
61741;SDS011;47650;49.848;9.620;2022-12-04T13:14:39;15.10;;;10.75;;
61741;SDS011;47650;49.848;9.620;2022-12-04T13:17:15;14.88;;;11.98;;
61741;SDS011;47650;49.848;9.620;2022-12-04T13:19:42;16.45;;;12.23;;
61741;SDS011;47650;49.848;9.620;2022-12-04T13:22:30;14.55;;;11.63;;
61741;SDS011;47650;49.848;9.620;2022-12-04T13:36:55;15.95;;;11.93;;
61741;SDS011;47650;49.848;9.620;2022-12-04T13:42:51;16.05;;;11.93;;
61741;SDS011;47650;49.848;9.620;2022-12-04T13:45:24;17.52;;;12.48;;
61741;SDS011;47650;49.848;9.620;2022-12-04T13:48:01;18.70;;;14.25;;
61741;SDS011;47650;49.848;9.620;2022-12-04T13:50:28;17.20;;;13.75;;
61741;SDS011;47650;49.848;9.620;2022-12-04T13:52:55;15.65;;;12.50;;
61741;SDS011;47650;49.848;9.620;2022-12-04T13:55:29;15.48;;;12.30;;
61741;SDS011;47650;49.848;9.620;2022-12-04T14:00:35;15.85;;;12.10;;
61741;SDS011;47650;49.848;9.620;2022-12-04T14:03:06;17.50;;;13.32;;
61741;SDS011;47650;49.848;9.620;2022-12-04T14:05:52;17.40;;;13.95;;
61741;SDS011;47650;49.848;9.620;2022-12-04T14:11:00;16.77;;;12.65;;
61741;SDS011;47650;49.848;9.620;2022-12-04T14:13:27;16.75;;;12.52;;
61741;SDS011;47650;49.848;9.620;2022-12-04T14:16:06;19.15;;;14.77;;
61741;SDS011;47650;49.848;9.620;2022-12-04T14:18:44;18.17;;;13.80;;
61741;SDS011;47650;49.848;9.620;2022-12-04T14:21:12;17.75;;;12.93;;
61741;SDS011;47650;49.848;9.620;2022-12-04T14:26:18;17.25;;;13.55;;
61741;SDS011;47650;49.848;9.620;2022-12-04T14:28:45;16.90;;;12.70;;
61741;SDS011;47650;49.848;9.620;2022-12-04T14:31:17;15.60;;;11.68;;
61741;SDS011;47650;49.848;9.620;2022-12-04T14:33:51;15.45;;;12.73;;
61741;SDS011;47650;49.848;9.620;2022-12-04T14:36:22;17.60;;;13.73;;
61741;SDS011;47650;49.848;9.620;2022-12-04T14:39:24;18.02;;;13.55;;
61741;SDS011;47650;49.848;9.620;2022-12-04T14:41:48;15.85;;;13.15;;
61741;SDS011;47650;49.848;9.620;2022-12-04T14:44:17;18.02;;;13.48;;
61741;SDS011;47650;49.848;9.620;2022-12-04T14:46:50;18.45;;;13.77;;
61741;SDS011;47650;49.848;9.620;2022-12-04T14:49:26;16.65;;;13.18;;
61741;SDS011;47650;49.848;9.620;2022-12-04T14:59:51;16.15;;;11.85;;
61741;SDS011;47650;49.848;9.620;2022-12-04T15:02:19;16.30;;;13.13;;
61741;SDS011;47650;49.848;9.620;2022-12-04T15:04:49;16.70;;;12.85;;
61741;SDS011;47650;49.848;9.620;2022-12-04T15:07:16;18.23;;;13.60;;
61741;SDS011;47650;49.848;9.620;2022-12-04T15:09:49;15.23;;;11.98;;
61741;SDS011;47650;49.848;9.620;2022-12-04T15:12:39;16.83;;;12.45;;
61741;SDS011;47650;49.848;9.620;2022-12-04T15:15:26;17.55;;;13.63;;
61741;SDS011;47650;49.848;9.620;2022-12-04T15:17:55;16.63;;;12.15;;
61741;SDS011;47650;49.848;9.620;2022-12-04T15:20:20;17.05;;;13.40;;
61741;SDS011;47650;49.848;9.620;2022-12-04T15:22:46;17.25;;;13.25;;
61741;SDS011;47650;49.848;9.620;2022-12-04T15:25:17;19.40;;;15.18;;
61741;SDS011;47650;49.848;9.620;2022-12-04T15:27:46;15.85;;;12.15;;
61741;SDS011;47650;49.848;9.620;2022-12-04T15:30:17;17.00;;;12.15;;
61741;SDS011;47650;49.848;9.620;2022-12-04T15:32:45;14.35;;;12.05;;
61741;SDS011;47650;49.848;9.620;2022-12-04T15:35:17;15.55;;;11.98;;
61741;SDS011;47650;49.848;9.620;2022-12-04T15:37:49;17.35;;;12.77;;
61741;SDS011;47650;49.848;9.620;2022-12-04T15:40:19;15.35;;;11.82;;
61741;SDS011;47650;49.848;9.620;2022-12-04T15:42:47;10.73;;;8.33;;
61741;SDS011;47650;49.848;9.620;2022-12-04T15:55:26;15.68;;;12.68;;
61741;SDS011;47650;49.848;9.620;2022-12-04T15:58:00;15.50;;;11.48;;
61741;SDS011;47650;49.848;9.620;2022-12-04T16:00:33;15.57;;;12.40;;
61741;SDS011;47650;49.848;9.620;2022-12-04T16:03:04;14.43;;;11.63;;
61741;SDS011;47650;49.848;9.620;2022-12-04T16:05:45;14.73;;;11.48;;
61741;SDS011;47650;49.848;9.620;2022-12-04T16:08:24;15.15;;;11.40;;
61741;SDS011;47650;49.848;9.620;2022-12-04T16:10:55;15.55;;;10.52;;
61741;SDS011;47650;49.848;9.620;2022-12-04T16:13:27;12.57;;;10.57;;
61741;SDS011;47650;49.848;9.620;2022-12-04T16:15:55;13.80;;;10.68;;
61741;SDS011;47650;49.848;9.620;2022-12-04T16:18:22;14.27;;;11.13;;
61741;SDS011;47650;49.848;9.620;2022-12-04T16:20:48;13.60;;;10.63;;
61741;SDS011;47650;49.848;9.620;2022-12-04T16:23:16;13.43;;;10.80;;
61741;SDS011;47650;49.848;9.620;2022-12-04T16:25:41;13.55;;;10.95;;
61741;SDS011;47650;49.848;9.620;2022-12-04T16:28:07;15.63;;;11.63;;
61741;SDS011;47650;49.848;9.620;2022-12-04T16:30:33;13.30;;;11.15;;
61741;SDS011;47650;49.848;9.620;2022-12-04T16:33:01;13.63;;;11.10;;
61741;SDS011;47650;49.848;9.620;2022-12-04T16:35:26;13.95;;;10.50;;
61741;SDS011;47650;49.848;9.620;2022-12-04T16:37:54;14.85;;;11.02;;
61741;SDS011;47650;49.848;9.620;2022-12-04T16:40:19;13.30;;;10.88;;
61741;SDS011;47650;49.848;9.620;2022-12-04T16:42:45;14.90;;;11.15;;
61741;SDS011;47650;49.848;9.620;2022-12-04T16:48:10;13.10;;;10.10;;
61741;SDS011;47650;49.848;9.620;2022-12-04T16:50:37;13.95;;;11.00;;
61741;SDS011;47650;49.848;9.620;2022-12-04T16:53:03;11.45;;;9.60;;
61741;SDS011;47650;49.848;9.620;2022-12-04T16:55:35;12.68;;;10.88;;